createdAt,value
2022-12-27T00:01:45.649Z,100436.34
2022-12-27T00:03:57.915Z,100434.50
2022-12-27T00:06:11.138Z,100434.30
2022-12-27T00:08:22.831Z,100445.74
2022-12-27T00:10:35.331Z,100453.55
2022-12-27T00:12:47.226Z,100455.47
2022-12-27T00:14:59.423Z,100460.77
2022-12-27T00:17:10.907Z,100468.64
2022-12-27T00:19:23.109Z,100476.55
2022-12-27T00:21:36.432Z,100487.15
2022-12-27T00:23:53.110Z,100499.30
2022-12-27T00:26:07.829Z,100510.69
2022-12-27T00:28:19.793Z,100517.12
2022-12-27T00:30:32.407Z,100520.31
2022-12-27T00:32:44.402Z,100524.89
2022-12-27T00:34:56.393Z,100534.66
2022-12-27T00:37:08.074Z,100538.00
2022-12-27T00:39:19.864Z,100538.31
2022-12-27T00:41:31.671Z,100537.35
2022-12-27T00:43:43.861Z,100538.47
2022-12-27T00:45:57.407Z,100537.67
2022-12-27T00:48:09.286Z,100537.40
2022-12-27T00:50:21.479Z,100548.91
2022-12-27T00:52:33.166Z,100555.28
2022-12-27T00:54:45.261Z,100557.27
2022-12-27T00:56:56.954Z,100561.59
2022-12-27T00:59:11.708Z,100559.86
2022-12-27T01:01:25.465Z,100562.85
2022-12-27T01:03:38.183Z,100559.77
2022-12-27T01:05:50.189Z,100564.58
2022-12-27T01:08:02.247Z,100559.23
2022-12-27T01:10:13.935Z,100566.23
2022-12-27T01:12:26.957Z,100568.52
2022-12-27T01:14:38.642Z,100572.02
2022-12-27T01:16:50.151Z,100575.78
2022-12-27T01:19:02.129Z,100580.73
2022-12-27T01:21:16.904Z,100584.96
2022-12-27T01:23:31.952Z,100583.91
2022-12-27T01:25:43.942Z,100582.93
2022-12-27T01:27:55.526Z,100587.43
2022-12-27T01:30:08.540Z,100586.97
2022-12-27T01:32:20.130Z,100588.51
2022-12-27T01:34:31.819Z,100591.77
2022-12-27T01:36:44.532Z,100591.17
2022-12-27T01:38:56.828Z,100589.17
2022-12-27T01:41:33.818Z,100591.45
2022-12-27T01:43:45.704Z,100595.45
2022-12-27T01:45:57.302Z,100594.06
2022-12-27T01:48:20.136Z,100598.27
2022-12-27T01:50:39.327Z,100602.54
2022-12-27T01:53:10.037Z,100607.79
2022-12-27T01:55:48.148Z,100611.05
2022-12-27T01:58:20.315Z,100611.27
2022-12-27T02:00:32.514Z,100612.27
2022-12-27T02:02:44.797Z,100614.84
2022-12-27T02:04:56.908Z,100615.49
2022-12-27T02:07:08.597Z,100617.96
2022-12-27T02:09:38.629Z,100617.23
2022-12-27T02:11:56.945Z,100622.94
2022-12-27T02:14:10.382Z,100620.37
2022-12-27T02:16:22.125Z,100619.25
2022-12-27T02:18:34.375Z,100624.66
2022-12-27T02:21:05.415Z,100624.15
2022-12-27T02:23:51.623Z,100625.17
2022-12-27T02:26:34.120Z,100625.38
2022-12-27T02:29:02.812Z,100627.61
2022-12-27T02:31:21.868Z,100629.44
2022-12-27T02:33:41.953Z,100633.73
2022-12-27T02:36:03.570Z,100637.17
2022-12-27T02:38:17.922Z,100645.59
2022-12-27T02:40:50.909Z,100651.12
2022-12-27T02:43:23.280Z,100659.84
2022-12-27T02:46:00.882Z,100661.70
2022-12-27T02:48:33.764Z,100669.96
2022-12-27T02:51:31.323Z,100670.95
2022-12-27T02:54:02.684Z,100679.36
2022-12-27T02:57:09.249Z,100679.50
2022-12-27T03:00:06.297Z,100681.45
2022-12-27T03:02:51.196Z,100685.59
2022-12-27T03:05:20.263Z,100687.86
2022-12-27T03:07:44.437Z,100689.33
2022-12-27T03:10:29.200Z,100693.81
2022-12-27T03:13:00.036Z,100692.20
2022-12-27T03:15:53.146Z,100691.34
2022-12-27T03:18:15.056Z,100694.59
2022-12-27T03:20:46.062Z,100697.76
2022-12-27T03:23:19.772Z,100702.17
2022-12-27T03:25:36.177Z,100709.11
2022-12-27T03:28:09.559Z,100715.80
2022-12-27T03:30:40.115Z,100715.46
2022-12-27T03:33:16.015Z,100722.83
2022-12-27T03:35:31.626Z,100723.91
2022-12-27T03:38:05.785Z,100729.39
2022-12-27T03:40:31.051Z,100731.48
2022-12-27T03:43:08.585Z,100736.02
2022-12-27T03:45:21.868Z,100737.94
2022-12-27T03:47:55.677Z,100737.75
2022-12-27T03:50:16.577Z,100740.95
2022-12-27T03:52:33.688Z,100747.47
2022-12-27T03:54:49.252Z,100748.63
2022-12-27T03:57:04.641Z,100743.33
2022-12-27T03:59:16.840Z,100741.61
2022-12-27T04:01:29.861Z,100745.36
2022-12-27T04:03:42.203Z,100746.51
2022-12-27T04:05:54.470Z,100749.30
2022-12-27T04:08:24.991Z,100747.92
2022-12-27T04:10:55.832Z,100755.20
2022-12-27T04:13:26.638Z,100757.61
2022-12-27T04:15:57.744Z,100763.28
2022-12-27T04:18:28.647Z,100767.95
2022-12-27T04:20:59.485Z,100766.96
2022-12-27T04:23:30.014Z,100765.11
2022-12-27T04:26:00.844Z,100771.01
2022-12-27T04:28:31.883Z,100767.50
2022-12-27T04:31:02.765Z,100768.72
2022-12-27T04:33:33.765Z,100770.77
2022-12-27T04:35:45.966Z,100773.35
2022-12-27T04:37:57.651Z,100775.58
2022-12-27T04:40:29.000Z,100777.37
2022-12-27T04:43:01.377Z,100780.84
2022-12-27T04:45:32.312Z,100785.36
2022-12-27T04:48:03.045Z,100787.77
2022-12-27T04:50:46.578Z,100795.55
2022-12-27T04:53:17.221Z,100795.80
2022-12-27T04:55:30.645Z,100797.98
2022-12-27T04:57:42.531Z,100798.89
2022-12-27T05:00:12.955Z,100802.98
2022-12-27T05:02:25.102Z,100803.02
2022-12-27T05:04:39.097Z,100802.41
2022-12-27T05:06:51.501Z,100811.39
2022-12-27T05:09:23.388Z,100812.13
2022-12-27T05:11:54.306Z,100816.21
2022-12-27T05:14:10.817Z,100821.21
2022-12-27T05:16:23.223Z,100819.96
2022-12-27T05:18:36.737Z,100823.73
2022-12-27T05:20:48.424Z,100832.78
2022-12-27T05:23:19.364Z,100830.81
2022-12-27T05:25:38.493Z,100829.64
2022-12-27T05:27:50.655Z,100828.75
2022-12-27T05:30:02.642Z,100834.38
2022-12-27T05:32:14.198Z,100837.04
2022-12-27T05:34:25.896Z,100842.23
2022-12-27T05:36:37.779Z,100839.31
2022-12-27T05:38:50.631Z,100842.81
2022-12-27T05:41:03.307Z,100852.81
2022-12-27T05:43:15.199Z,100853.91
2022-12-27T05:45:28.321Z,100856.77
2022-12-27T05:47:41.236Z,100859.39
2022-12-27T05:49:53.135Z,100864.55
2022-12-27T05:52:05.127Z,100866.96
2022-12-27T05:54:16.717Z,100865.11
2022-12-27T05:56:28.294Z,100871.88
2022-12-27T05:58:40.187Z,100878.69
2022-12-27T06:00:51.726Z,100872.34
2022-12-27T06:03:04.084Z,100873.42
2022-12-27T06:05:16.405Z,100871.11
2022-12-27T06:07:28.066Z,100875.70
2022-12-27T06:09:40.774Z,100880.44
2022-12-27T06:11:52.666Z,100880.80
2022-12-27T06:14:04.252Z,100886.39
2022-12-27T06:16:16.911Z,100896.02
2022-12-27T06:18:31.109Z,100895.95
2022-12-27T06:20:42.694Z,100895.37
2022-12-27T06:22:54.349Z,100898.23
2022-12-27T06:25:10.815Z,100899.78
2022-12-27T06:27:25.850Z,100903.58
2022-12-27T06:29:37.533Z,100904.66
2022-12-27T06:31:49.766Z,100914.11
2022-12-27T06:34:01.528Z,100913.70
2022-12-27T06:36:16.390Z,100916.77
2022-12-27T06:38:28.381Z,100921.40
2022-12-27T06:40:40.275Z,100922.46
2022-12-27T06:42:52.164Z,100927.86
2022-12-27T06:45:05.991Z,100930.45
2022-12-27T06:47:17.810Z,100930.55
2022-12-27T06:49:30.100Z,100934.57
2022-12-27T06:51:41.781Z,100945.88
2022-12-27T06:53:53.578Z,100948.67
2022-12-27T06:56:14.118Z,100948.55
2022-12-27T06:58:26.165Z,100951.11
2022-12-27T07:00:38.363Z,100954.91
2022-12-27T07:02:50.530Z,100960.05
2022-12-27T07:05:03.169Z,100965.77
2022-12-27T07:07:16.020Z,100967.06
2022-12-27T07:09:28.187Z,100972.55
2022-12-27T07:11:40.081Z,100976.82
2022-12-27T07:13:53.809Z,100978.88
2022-12-27T07:16:07.116Z,100981.45
2022-12-27T07:18:18.937Z,100988.66
2022-12-27T07:20:30.512Z,100994.74
2022-12-27T07:22:42.301Z,100998.91
2022-12-27T07:24:54.194Z,101007.00
2022-12-27T07:27:06.291Z,101011.94
2022-12-27T07:29:18.287Z,101013.86
2022-12-27T07:31:32.610Z,101016.28
2022-12-27T07:33:45.352Z,101018.75
2022-12-27T07:36:02.360Z,101014.90
2022-12-27T07:38:14.046Z,101014.08
2022-12-27T07:40:26.312Z,101016.55
2022-12-27T07:42:38.241Z,101015.34
2022-12-27T07:44:50.036Z,101023.80
2022-12-27T07:47:02.332Z,101026.55
2022-12-27T07:49:17.867Z,101032.86
2022-12-27T07:51:30.325Z,101040.61
2022-12-27T07:53:43.042Z,101038.63
2022-12-27T07:55:55.247Z,101036.56
2022-12-27T07:58:07.323Z,101034.88
2022-12-27T08:00:19.358Z,101039.17
2022-12-27T08:02:31.179Z,101037.71
2022-12-27T08:04:43.346Z,101042.54
2022-12-27T08:07:00.105Z,101047.73
2022-12-27T08:09:16.041Z,101051.96
2022-12-27T08:11:27.835Z,101055.50
2022-12-27T08:13:39.549Z,101052.59
2022-12-27T08:15:52.983Z,101052.41
2022-12-27T08:18:05.146Z,101052.35
2022-12-27T08:20:17.059Z,101059.66
2022-12-27T08:22:29.033Z,101059.14
2022-12-27T08:24:41.744Z,101065.89
2022-12-27T08:26:53.412Z,101064.39
2022-12-27T08:29:05.142Z,101061.80
2022-12-27T08:31:16.940Z,101062.52
2022-12-27T08:33:29.644Z,101066.84
2022-12-27T08:35:54.626Z,101064.35
2022-12-27T08:38:07.742Z,101064.93
2022-12-27T08:40:19.222Z,101067.83
2022-12-27T08:42:30.931Z,101070.33
2022-12-27T08:44:42.543Z,101067.48
2022-12-27T08:46:54.389Z,101073.70
2022-12-27T08:49:06.383Z,101071.34
2022-12-27T08:51:30.231Z,101074.55
2022-12-27T08:53:45.129Z,101075.51
2022-12-27T08:55:57.934Z,101075.96
2022-12-27T08:58:16.130Z,101078.27
2022-12-27T09:00:29.094Z,101078.50
2022-12-27T09:02:41.271Z,101078.02
2022-12-27T09:04:53.293Z,101088.04
2022-12-27T09:07:05.587Z,101085.05
2022-12-27T09:09:17.992Z,101085.18
2022-12-27T09:11:33.392Z,101086.91
2022-12-27T09:13:46.392Z,101087.62
2022-12-27T09:15:58.250Z,101088.84
2022-12-27T09:18:11.402Z,101095.66
2022-12-27T09:20:23.952Z,101099.02
2022-12-27T09:22:35.984Z,101100.44
2022-12-27T09:24:48.305Z,101107.06
2022-12-27T09:27:00.196Z,101102.63
2022-12-27T09:29:12.501Z,101102.04
2022-12-27T09:31:25.976Z,101100.34
2022-12-27T09:33:38.960Z,101106.88
2022-12-27T09:35:50.834Z,101109.93
2022-12-27T09:38:03.041Z,101116.11
2022-12-27T09:40:17.897Z,101106.21
2022-12-27T09:43:04.701Z,101104.92
2022-12-27T09:45:49.274Z,101101.77
2022-12-27T09:48:12.227Z,101105.89
2022-12-27T09:50:50.081Z,101102.80
2022-12-27T09:53:17.563Z,101106.95
2022-12-27T09:55:37.249Z,101107.63
2022-12-27T09:57:51.097Z,101107.86
2022-12-27T10:00:10.936Z,101114.63
2022-12-27T10:02:26.494Z,101107.77
2022-12-27T10:05:17.703Z,101105.85
2022-12-27T10:07:41.334Z,101103.20
2022-12-27T10:10:19.029Z,101094.08
2022-12-27T10:12:59.079Z,101089.61
2022-12-27T10:15:13.939Z,101086.57
2022-12-27T10:17:52.696Z,101082.38
2022-12-27T10:20:25.647Z,101089.53
2022-12-27T10:22:48.213Z,101086.24
2022-12-27T10:25:03.974Z,101089.13
2022-12-27T10:27:27.847Z,101087.95
2022-12-27T10:29:40.049Z,101088.41
2022-12-27T10:31:53.373Z,101083.96
2022-12-27T10:34:10.432Z,101084.20
2022-12-27T10:36:27.912Z,101089.65
2022-12-27T10:38:40.415Z,101089.33
2022-12-27T10:41:08.145Z,101090.10
2022-12-27T10:43:29.720Z,101093.20
2022-12-27T10:45:43.139Z,101088.89
2022-12-27T10:47:58.624Z,101089.33
2022-12-27T10:50:13.678Z,101088.38
2022-12-27T10:52:25.458Z,101082.09
2022-12-27T10:54:51.410Z,101087.30
2022-12-27T10:57:23.958Z,101089.52
2022-12-27T10:59:36.360Z,101087.83
2022-12-27T11:02:07.442Z,101090.23
2022-12-27T11:04:24.422Z,101089.48
2022-12-27T11:06:36.309Z,101088.47
2022-12-27T11:08:49.018Z,101087.21
2022-12-27T11:11:24.669Z,101091.70
2022-12-27T11:13:36.663Z,101089.40
2022-12-27T11:15:59.025Z,101086.20
2022-12-27T11:18:18.990Z,101090.84
2022-12-27T11:20:40.841Z,101091.65
2022-12-27T11:22:57.068Z,101093.36
2022-12-27T11:25:13.909Z,101090.56
2022-12-27T11:27:29.091Z,101092.42
2022-12-27T11:29:45.614Z,101097.19
2022-12-27T11:32:04.291Z,101093.27
2022-12-27T11:34:21.605Z,101098.42
2022-12-27T11:36:40.761Z,101093.89
2022-12-27T11:38:52.722Z,101099.27
2022-12-27T11:41:13.918Z,101102.21
2022-12-27T11:43:30.832Z,101106.48
2022-12-27T11:45:50.197Z,101108.73
2022-12-27T11:48:33.119Z,101107.70
2022-12-27T11:50:51.443Z,101113.55
2022-12-27T11:53:16.662Z,101110.48
2022-12-27T11:55:49.444Z,101107.77
2022-12-27T11:58:28.370Z,101107.90
2022-12-27T12:00:53.879Z,101103.65
2022-12-27T12:03:08.888Z,101099.04
2022-12-27T12:05:50.742Z,101104.73
2022-12-27T12:08:19.019Z,101104.27
2022-12-27T12:11:04.911Z,101103.19
2022-12-27T12:13:51.110Z,101108.20
2022-12-27T12:16:26.493Z,101105.55
2022-12-27T12:18:52.572Z,101104.97
2022-12-27T12:21:27.307Z,101112.59
2022-12-27T12:23:48.722Z,101113.42
2022-12-27T12:26:09.004Z,101113.36
2022-12-27T12:28:57.646Z,101114.96
2022-12-27T12:31:33.217Z,101119.98
2022-12-27T12:33:58.104Z,101115.33
2022-12-27T12:36:27.199Z,101114.17
2022-12-27T12:38:51.470Z,101121.23
2022-12-27T12:41:27.336Z,101123.92
2022-12-27T12:43:59.605Z,101130.91
2022-12-27T12:46:39.145Z,101126.33
2022-12-27T12:49:28.822Z,101130.34
2022-12-27T12:52:04.066Z,101128.72
2022-12-27T12:54:44.420Z,101128.14
2022-12-27T12:57:26.422Z,101131.46
2022-12-27T13:00:00.535Z,101136.21
2022-12-27T13:02:33.254Z,101137.94
2022-12-27T13:05:20.741Z,101143.46
2022-12-27T13:08:02.061Z,101140.63
2022-12-27T13:10:32.352Z,101140.83
2022-12-27T13:13:06.875Z,101138.02
2022-12-27T13:15:53.601Z,101136.70
2022-12-27T13:18:15.896Z,101139.73
2022-12-27T13:20:41.648Z,101140.30
2022-12-27T13:23:24.459Z,101152.08
2022-12-27T13:26:04.414Z,101150.20
2022-12-27T13:28:33.194Z,101153.80
2022-12-27T13:31:07.558Z,101149.89
2022-12-27T13:33:51.756Z,101155.52
2022-12-27T13:36:30.889Z,101154.16
2022-12-27T13:39:13.810Z,101158.14
2022-12-27T13:41:58.572Z,101166.02
2022-12-27T13:44:21.120Z,101168.09
2022-12-27T13:46:54.004Z,101171.90
2022-12-27T13:49:40.303Z,101175.56
2022-12-27T13:51:56.286Z,101171.88
2022-12-27T13:54:37.881Z,101176.64
2022-12-27T13:56:54.811Z,101176.64
2022-12-27T13:59:27.368Z,101178.03
2022-12-27T14:02:11.464Z,101177.11
2022-12-27T14:04:46.034Z,101183.16
2022-12-27T14:07:31.971Z,101183.96
2022-12-27T14:10:06.847Z,101188.48
2022-12-27T14:12:49.806Z,101188.32
2022-12-27T14:15:06.796Z,101195.83
2022-12-27T14:17:56.470Z,101201.06
2022-12-27T14:20:29.870Z,101204.25
2022-12-27T14:23:02.848Z,101206.30
2022-12-27T14:25:48.148Z,101202.33
2022-12-27T14:28:35.870Z,101197.70
2022-12-27T14:31:25.405Z,101201.36
2022-12-27T14:33:46.144Z,101199.27
2022-12-27T14:36:36.225Z,101193.20
2022-12-27T14:39:15.144Z,101212.30
2022-12-27T14:42:05.369Z,101212.50
2022-12-27T14:44:44.982Z,101216.25
2022-12-27T14:47:00.049Z,101221.76
2022-12-27T14:50:08.057Z,101226.01
2022-12-27T14:52:49.168Z,101230.80
2022-12-27T14:56:00.179Z,101233.27
2022-12-27T14:58:33.332Z,101234.73
2022-12-27T15:01:11.648Z,101236.98
2022-12-27T15:03:55.267Z,101240.46
2022-12-27T15:07:02.844Z,101241.92
2022-12-27T15:09:56.513Z,101241.91
2022-12-27T15:12:31.999Z,101240.95
2022-12-27T15:15:37.122Z,101237.84
2022-12-27T15:18:06.552Z,101239.10
2022-12-27T15:20:32.222Z,101236.34
2022-12-27T15:23:17.403Z,101238.05
2022-12-27T15:26:03.178Z,101244.44
2022-12-27T15:28:22.573Z,101251.42
2022-12-27T15:30:52.905Z,101252.86
2022-12-27T15:33:42.960Z,101248.73
2022-12-27T15:36:03.042Z,101248.52
2022-12-27T15:38:18.075Z,101250.67
2022-12-27T15:40:34.155Z,101253.46
2022-12-27T15:42:58.388Z,101256.80
2022-12-27T15:45:22.561Z,101263.02
2022-12-27T15:48:10.617Z,101264.96
2022-12-27T15:50:53.315Z,101269.81
2022-12-27T15:54:07.758Z,101271.48
2022-12-27T15:56:57.602Z,101275.19
2022-12-27T16:02:54.784Z,101282.88
2022-12-27T16:05:20.858Z,101282.14
2022-12-27T16:07:45.295Z,101280.46
2022-12-27T16:09:58.953Z,101283.33
2022-12-27T16:12:37.299Z,101286.52
2022-12-27T16:15:30.182Z,101290.02
2022-12-27T16:17:55.881Z,101290.26
2022-12-27T16:20:26.798Z,101292.48
2022-12-27T16:22:43.196Z,101289.05
2022-12-27T16:24:56.520Z,101290.21
2022-12-27T16:27:20.407Z,101288.90
2022-12-27T16:29:43.349Z,101292.61
2022-12-27T16:32:26.776Z,101289.30
2022-12-27T16:34:39.387Z,101287.56
2022-12-27T16:36:53.890Z,101288.88
2022-12-27T16:39:11.913Z,101288.48
2022-12-27T16:41:32.996Z,101292.82
2022-12-27T16:44:04.906Z,101295.00
2022-12-27T16:46:33.754Z,101298.10
2022-12-27T16:49:08.726Z,101293.54
2022-12-27T16:51:36.432Z,101292.79
2022-12-27T16:54:29.696Z,101297.17
2022-12-27T16:56:45.067Z,101301.95
2022-12-27T16:58:58.057Z,101305.32
2022-12-27T17:01:19.090Z,101307.64
2022-12-27T17:03:37.152Z,101310.75
2022-12-27T17:06:30.068Z,101314.43
2022-12-27T17:08:24.569Z,101317.61
2022-12-27T17:10:42.709Z,101319.42
2022-12-27T17:13:02.999Z,101320.64
2022-12-27T17:15:15.324Z,101328.02
2022-12-27T17:17:28.242Z,101324.45
2022-12-27T17:19:48.712Z,101326.77
2022-12-27T17:22:05.115Z,101326.44
2022-12-27T17:24:19.977Z,101321.52
2022-12-27T17:26:46.310Z,101323.48
2022-12-27T17:29:17.241Z,101326.56
2022-12-27T17:32:00.772Z,101324.20
2022-12-27T17:34:44.206Z,101329.84
2022-12-27T17:37:09.311Z,101328.30
2022-12-27T17:39:49.172Z,101336.17
2022-12-27T17:42:34.948Z,101339.18
2022-12-27T17:45:04.963Z,101339.21
2022-12-27T17:47:45.111Z,101341.02
2022-12-27T17:50:01.306Z,101343.29
2022-12-27T17:52:37.777Z,101342.34
2022-12-27T17:55:08.923Z,101339.66
2022-12-27T17:57:40.265Z,101341.94
2022-12-27T17:59:52.490Z,101342.88
2022-12-27T18:02:18.551Z,101348.69
2022-12-27T18:04:35.879Z,101346.77
2022-12-27T18:06:48.009Z,101343.95
2022-12-27T18:08:59.696Z,101347.83
2022-12-27T18:11:15.797Z,101345.87
2022-12-27T18:13:32.611Z,101347.80
2022-12-27T18:15:46.851Z,101348.70
2022-12-27T18:18:04.170Z,101353.27
2022-12-27T18:20:28.845Z,101353.44
2022-12-27T18:22:41.670Z,101356.95
2022-12-27T18:24:53.784Z,101361.48
2022-12-27T18:27:33.946Z,101363.79
2022-12-27T18:29:52.334Z,101365.17
2022-12-27T18:32:33.691Z,101365.58
2022-12-27T18:34:57.857Z,101365.70
2022-12-27T18:37:13.609Z,101362.71
2022-12-27T18:39:39.379Z,101365.80
2022-12-27T18:41:54.714Z,101366.58
2022-12-27T18:44:15.231Z,101373.48
2022-12-27T18:46:34.262Z,101369.92
2022-12-27T18:48:49.615Z,101379.21
2022-12-27T18:51:03.004Z,101378.86
2022-12-27T18:53:36.412Z,101377.79
2022-12-27T18:55:57.079Z,101378.77
2022-12-27T18:58:20.527Z,101380.62
2022-12-27T19:01:06.737Z,101383.39
2022-12-27T19:03:21.254Z,101380.77
2022-12-27T19:05:36.533Z,101375.28
2022-12-27T19:08:14.959Z,101380.73
2022-12-27T19:10:29.095Z,101380.98
2022-12-27T19:12:56.436Z,101380.45
2022-12-27T19:15:22.698Z,101382.63
2022-12-27T19:17:38.570Z,101377.70
2022-12-27T19:19:53.515Z,101381.05
2022-12-27T19:22:30.095Z,101383.45
2022-12-27T19:24:42.160Z,101384.66
2022-12-27T19:26:55.819Z,101383.94
2022-12-27T19:29:14.894Z,101377.43
2022-12-27T19:31:27.921Z,101382.86
2022-12-27T19:33:40.318Z,101384.10
2022-12-27T19:35:53.331Z,101388.34
2022-12-27T19:38:05.227Z,101391.11
2022-12-27T19:40:17.628Z,101393.53
2022-12-27T19:42:35.127Z,101397.92
2022-12-27T19:44:47.160Z,101401.32
2022-12-27T19:46:59.757Z,101396.45
2022-12-27T19:51:43.616Z,101398.52
2022-12-27T19:53:57.998Z,101398.17
2022-12-27T19:56:11.931Z,101400.48
2022-12-27T19:58:26.676Z,101400.77
2022-12-27T20:00:38.244Z,101404.38
2022-12-27T20:02:49.901Z,101401.11
2022-12-27T20:05:01.827Z,101402.89
2022-12-27T20:07:21.507Z,101395.33
2022-12-27T20:09:33.600Z,101396.42
2022-12-27T20:11:47.733Z,101399.34
2022-12-27T20:14:00.281Z,101402.28
2022-12-27T20:16:14.625Z,101400.36
2022-12-27T20:18:27.212Z,101402.20
2022-12-27T20:20:39.611Z,101401.17
2022-12-27T20:22:51.103Z,101401.25
2022-12-27T20:25:03.393Z,101401.27
2022-12-27T20:27:15.179Z,101402.19
2022-12-27T20:29:27.794Z,101413.70
2022-12-27T20:31:44.746Z,101411.39
2022-12-27T20:33:57.618Z,101418.73
2022-12-27T20:36:11.362Z,101417.71
2022-12-27T20:38:24.445Z,101422.52
2022-12-27T20:40:36.776Z,101421.86
2022-12-27T20:42:49.400Z,101424.96
2022-12-27T20:45:05.740Z,101425.36
2022-12-27T20:47:22.659Z,101430.94
2022-12-27T20:49:36.227Z,101432.80
2022-12-27T20:51:51.937Z,101434.30
2022-12-27T20:54:09.451Z,101438.50
2022-12-27T20:56:26.438Z,101444.34
2022-12-27T20:58:43.865Z,101437.94
2022-12-27T21:01:07.666Z,101442.21
2022-12-27T21:03:24.381Z,101438.70
2022-12-27T21:05:39.034Z,101437.70
2022-12-27T21:07:55.662Z,101442.00
2022-12-27T21:10:12.429Z,101436.94
2022-12-27T21:12:27.682Z,101443.30
2022-12-27T21:14:42.143Z,101443.08
2022-12-27T21:16:59.903Z,101444.03
2022-12-27T21:19:18.835Z,101442.73
2022-12-27T21:21:38.525Z,101440.23
2022-12-27T21:23:55.113Z,101437.84
2022-12-27T21:26:19.338Z,101434.17
2022-12-27T21:28:36.180Z,101433.45
2022-12-27T21:30:59.652Z,101433.46
2022-12-27T21:33:16.636Z,101434.52
2022-12-27T21:35:33.421Z,101433.92
2022-12-27T21:37:49.740Z,101435.66
2022-12-27T21:40:06.996Z,101436.62
2022-12-27T21:42:23.631Z,101437.89
2022-12-27T21:44:38.977Z,101437.50
2022-12-27T21:46:51.368Z,101434.09
2022-12-27T21:49:09.212Z,101430.83
2022-12-27T21:51:20.986Z,101425.42
2022-12-27T21:53:33.187Z,101425.25
2022-12-27T21:55:45.898Z,101423.52
2022-12-27T21:57:57.997Z,101421.61
2022-12-27T22:00:11.222Z,101419.20
2022-12-27T22:02:23.787Z,101422.65
2022-12-27T22:04:36.132Z,101420.46
2022-12-27T22:06:48.317Z,101421.34
2022-12-27T22:09:06.373Z,101423.42
2022-12-27T22:11:20.985Z,101426.48
2022-12-27T22:13:33.530Z,101426.66
2022-12-27T22:15:55.273Z,101432.27
2022-12-27T22:18:07.144Z,101428.96
2022-12-27T22:20:18.832Z,101424.37
2022-12-27T22:22:30.932Z,101427.41
2022-12-27T22:24:42.529Z,101424.75
2022-12-27T22:26:54.412Z,101426.79
2022-12-27T22:29:06.599Z,101429.10
2022-12-27T22:31:25.025Z,101424.14
2022-12-27T22:33:37.658Z,101423.73
2022-12-27T22:35:49.562Z,101423.95
2022-12-27T22:38:01.557Z,101423.89
2022-12-27T22:40:30.675Z,101424.12
2022-12-27T22:42:43.355Z,101421.91
2022-12-27T22:44:55.042Z,101423.64
2022-12-27T22:47:25.874Z,101418.67
2022-12-27T22:49:38.694Z,101414.80
2022-12-27T22:51:50.994Z,101409.77
2022-12-27T22:54:04.881Z,101406.71
2022-12-27T22:56:19.696Z,101404.73
2022-12-27T22:58:32.417Z,101405.85
2022-12-27T23:00:44.604Z,101405.48
2022-12-27T23:02:56.195Z,101407.55
2022-12-27T23:05:08.081Z,101407.66
2022-12-27T23:07:21.333Z,101410.60
2022-12-27T23:09:53.064Z,101413.61
2022-12-27T23:12:06.633Z,101411.09
2022-12-27T23:14:18.691Z,101408.48
2022-12-27T23:16:41.878Z,101405.65
2022-12-27T23:18:54.255Z,101403.54
2022-12-27T23:21:20.638Z,101402.14
2022-12-27T23:23:36.574Z,101401.14
2022-12-27T23:25:48.568Z,101397.11
2022-12-27T23:28:00.367Z,101399.05
2022-12-27T23:30:13.384Z,101393.44
2022-12-27T23:32:25.064Z,101387.91
2022-12-27T23:34:37.264Z,101390.41
2022-12-27T23:36:49.153Z,101388.13
2022-12-27T23:39:01.148Z,101387.42
2022-12-27T23:41:22.768Z,101385.52
2022-12-27T23:43:54.812Z,101385.10
2022-12-27T23:46:12.180Z,101381.92
2022-12-27T23:48:24.457Z,101381.91
2022-12-27T23:50:36.348Z,101378.73
2022-12-27T23:52:48.548Z,101375.94
2022-12-27T23:55:00.233Z,101375.12
2022-12-27T23:57:20.693Z,101373.79
2022-12-27T23:59:34.668Z,101371.46
